Time;durP1;ratioP1;P1;durP2;ratioP2;P2;SDS_P1;SDS_P2;PMS_P1;PMS_P2;Temp;Humidity;BMP_temperature;BMP_pressure;BME280_temperature;BME280_humidity;BME280_pressure;Samples;Min_cycle;Max_cycle;Signal;HPM_P1;HPM_P2
2022/01/18 00:00:58;;;;;;;13.27;2.50;;;;;;;3.65;100.00;102090.53;5018610;28;20021;-83
2022/01/18 00:03:24;;;;;;;15.38;2.25;;;;;;;3.62;100.00;102090.44;5019397;28;20058;-82
2022/01/18 00:09:40;;;;;;;;;;;;;;;;;;;;;
2022/01/18 00:15:15;;;;;;;16.20;3.10;;;;;;;3.77;100.00;102092.63;5021177;28;20049;-81
2022/01/18 00:18:19;;;;;;;22.02;2.83;;;;;;;3.69;100.00;102097.69;5019557;28;20034;-81
2022/01/18 00:20:37;;;;;;;15.23;2.30;;;;;;;3.79;100.00;102087.38;5019088;23;20050;-72
2022/01/18 00:23:03;;;;;;;11.75;2.08;;;;;;;3.85;100.00;102082.25;4997142;28;20121;-72
2022/01/18 00:25:28;;;;;;;15.38;2.50;;;;;;;3.87;100.00;102091.13;5014601;28;20061;-72
2022/01/18 00:27:54;;;;;;;14.02;2.05;;;;;;;3.86;100.00;102088.44;5013966;28;20080;-72
2022/01/18 00:33:18;;;;;;;12.73;2.47;;;;;;;3.99;100.00;102100.25;5015044;28;20084;-71
2022/01/18 00:35:45;;;;;;;12.20;2.25;;;;;;;3.94;100.00;102097.50;5014794;28;20105;-71
2022/01/18 00:38:29;;;;;;;16.38;2.53;;;;;;;3.94;100.00;102102.78;5013137;28;20093;-72
2022/01/18 00:40:55;;;;;;;8.68;2.00;;;;;;;3.98;100.00;102102.00;5014462;28;20018;-72
2022/01/18 00:43:21;;;;;;;12.98;1.88;;;;;;;3.95;100.00;102104.53;5012893;28;20032;-71
2022/01/18 00:45:46;;;;;;;17.35;2.45;;;;;;;3.94;100.00;102107.16;5013041;28;20018;-72
2022/01/18 00:48:12;;;;;;;9.40;1.75;;;;;;;3.98;100.00;102109.91;5014506;28;20104;-72
2022/01/18 00:50:38;;;;;;;13.50;2.20;;;;;;;4.03;100.00;102112.69;5014317;28;20483;-71
2022/01/18 00:53:09;;;;;;;8.98;2.47;;;;;;;4.06;100.00;102107.47;5014239;28;20081;-72
2022/01/18 00:55:37;;;;;;;11.75;2.08;;;;;;;3.94;100.00;102107.16;5014450;28;20021;-71
2022/01/18 00:58:02;;;;;;;13.57;2.92;;;;;;;3.94;100.00;102112.44;5014282;28;20110;-72
2022/01/18 01:00:28;;;;;;;9.73;2.13;;;;;;;3.98;100.00;102109.91;5014263;28;20452;-72
2022/01/18 01:02:53;;;;;;;11.10;2.33;;;;;;;3.89;100.00;102131.69;5014251;28;20030;-72
2022/01/18 01:05:18;;;;;;;15.10;2.38;;;;;;;3.90;100.00;102120.28;5013590;28;20025;-71
2022/01/18 01:07:43;;;;;;;12.68;2.70;;;;;;;3.95;100.00;102124.78;5012611;28;20026;-72
2022/01/18 01:10:09;;;;;;;11.90;1.50;;;;;;;4.19;100.00;102128.97;5013692;28;20028;-71
2022/01/18 01:12:34;;;;;;;10.68;2.30;;;;;;;4.05;100.00;102132.13;5013777;28;20033;-72
2022/01/18 01:15:07;;;;;;;14.07;2.40;;;;;;;3.99;100.00;102142.53;5013655;28;20034;-72
2022/01/18 01:17:44;;;;;;;10.88;2.10;;;;;;;4.13;100.00;102140.25;5012585;28;20017;-71
2022/01/18 01:34:34;;;;;;;14.15;2.53;;;;;;;3.81;100.00;102143.81;5013685;28;20125;-72
2022/01/18 01:37:14;;;;;;;16.67;2.55;;;;;;;3.77;100.00;102147.22;5013499;28;20092;-72
2022/01/18 01:42:59;;;;;;;;;;;;;;;3.74;100.00;102145.38;5014353;28;20079;-72
2022/01/18 01:45:16;;;;;;;18.15;2.47;;;;;;;3.80;100.00;102137.63;5012175;28;19999;-72
2022/01/18 01:47:41;;;;;;;24.20;3.00;;;;;;;3.76;100.00;102142.81;5012024;28;20092;-72
2022/01/18 01:50:15;;;;;;;15.95;2.80;;;;;;;3.85;100.00;102145.69;5013139;28;20025;-72
2022/01/18 01:52:41;;;;;;;18.08;2.97;;;;;;;3.83;100.00;102147.41;5012105;28;20039;-72
2022/01/18 01:55:06;;;;;;;13.98;3.15;;;;;;;3.89;100.00;102147.56;5013827;28;20034;-72
2022/01/18 01:57:32;;;;;;;11.57;2.30;;;;;;;3.89;100.00;102142.28;5013273;28;20026;-72
2022/01/18 01:59:57;;;;;;;19.30;3.22;;;;;;;3.87;100.00;102143.97;5011911;28;20474;-72
2022/01/18 02:02:25;;;;;;;13.65;2.80;;;;;;;3.95;100.00;102145.94;5013481;28;20105;-71
2022/01/18 02:04:50;;;;;;;15.25;3.42;;;;;;;3.85;100.00;102135.13;5013188;28;20022;-72
2022/01/18 02:07:15;;;;;;;12.65;2.75;;;;;;;3.88;100.00;102134.31;5012018;28;20033;-72
2022/01/18 02:09:41;;;;;;;13.15;3.08;;;;;;;3.96;100.00;102121.31;5013129;28;20026;-72
2022/01/18 02:12:07;;;;;;;15.38;3.60;;;;;;;3.83;100.00;102130.63;5013044;28;20029;-72
2022/01/18 02:14:33;;;;;;;14.95;2.55;;;;;;;3.98;100.00;102119.59;5012180;28;20025;-73
2022/01/18 02:22:26;;;;;;;16.80;3.53;;;;;;;3.95;100.00;102125.69;5013214;28;20053;-72
2022/01/18 02:24:52;;;;;;;11.07;3.10;;;;;;;4.01;100.00;102133.81;5013014;28;20390;-72
2022/01/18 02:27:17;;;;;;;11.20;3.63;;;;;;;3.99;100.00;102137.25;5012993;28;20080;-72
2022/01/18 02:29:43;;;;;;;14.13;3.28;;;;;;;3.84;100.00;102128.03;5012797;28;20037;-72
2022/01/18 02:32:09;;;;;;;14.88;3.42;;;;;;;3.82;100.00;102129.75;5012735;28;20482;-72
2022/01/18 02:34:34;;;;;;;12.48;3.88;;;;;;;3.91;100.00;102130.00;5012787;28;20064;-72
2022/01/18 02:37:03;;;;;;;14.05;4.20;;;;;;;4.00;100.00;102123.16;5012865;28;20487;-72
2022/01/18 02:39:30;;;;;;;11.60;4.13;;;;;;;3.87;100.00;102133.41;4995558;28;20048;-72
2022/01/18 02:41:57;;;;;;;10.82;4.05;;;;;;;4.08;100.00;102126.91;5012741;28;20105;-72
2022/01/18 02:44:24;;;;;;;18.65;4.80;;;;;;;4.08;100.00;102132.22;5012856;28;20072;-72
2022/01/18 02:46:50;;;;;;;12.93;4.78;;;;;;;4.05;100.00;102129.47;5012998;28;20121;-72
2022/01/18 02:49:16;;;;;;;13.82;5.03;;;;;;;4.02;100.00;102132.06;5012734;28;20069;-72
2022/01/18 02:51:41;;;;;;;14.55;4.85;;;;;;;3.94;100.00;102138.88;5013841;28;20080;-72
2022/01/18 02:54:10;;;;;;;16.13;5.22;;;;;;;4.00;100.00;102131.09;5016234;28;20021;-73
2022/01/18 02:56:45;;;;;;;13.10;5.03;;;;;;;4.09;100.00;102123.44;5014928;28;20479;-72
2022/01/18 02:59:19;;;;;;;19.80;5.97;;;;;;;4.01;100.00;102127.63;5016221;28;20499;-72
2022/01/18 03:04:29;;;;;;;14.55;5.10;;;;;;;4.07;100.00;102114.53;5016716;28;19915;-72
2022/01/18 03:06:54;;;;;;;15.90;5.90;;;;;;;4.00;100.00;102120.53;5014787;28;20025;-72
2022/01/18 03:09:20;;;;;;;16.08;5.68;;;;;;;4.01;100.00;102106.47;5016195;28;20026;-72
2022/01/18 03:11:45;;;;;;;21.38;6.38;;;;;;;4.00;100.00;102110.84;5015824;28;20029;-72
2022/01/18 03:14:11;;;;;;;20.30;6.00;;;;;;;4.02;100.00;102105.63;5015885;28;20018;-72
2022/01/18 03:16:36;;;;;;;18.05;5.72;;;;;;;4.00;100.00;102117.88;5015834;28;20061;-72
2022/01/18 03:19:02;;;;;;;17.60;6.35;;;;;;;4.07;100.00;102116.31;5014556;28;20022;-72
2022/01/18 03:21:28;;;;;;;19.98;6.45;;;;;;;3.93;100.00;102115.94;5015724;28;20394;-72
2022/01/18 03:24:09;;;;;;;15.13;6.00;;;;;;;3.99;100.00;102117.00;5015705;28;20037;-72
2022/01/18 03:28:03;;;;;;;17.67;6.13;;;;;;;3.92;100.00;102117.66;5015718;28;20108;-72
2022/01/18 03:29:20;;;;;;;15.93;6.28;;;;;;;3.91;100.00;102114.16;5015534;28;20503;-73
2022/01/18 03:31:45;;;;;;;14.68;5.82;;;;;;;4.03;100.00;102117.97;5015543;28;20522;-72
2022/01/18 03:34:10;;;;;;;14.65;6.45;;;;;;;4.02;100.00;102126.78;5015475;28;20025;-72
2022/01/18 03:36:36;;;;;;;14.50;6.47;;;;;;;3.97;100.00;102115.19;5014247;28;20034;-72
2022/01/18 03:39:01;;;;;;;20.00;6.78;;;;;;;3.96;100.00;102126.59;5015505;28;20018;-72
2022/01/18 03:41:26;;;;;;;13.38;5.88;;;;;;;4.05;100.00;102126.84;5015501;28;20387;-72
2022/01/18 03:43:53;;;;;;;15.32;6.60;;;;;;;3.98;100.00;102128.44;5015223;28;20017;-72
2022/01/18 03:46:19;;;;;;;19.73;7.43;;;;;;;3.97;100.00;102123.97;5015182;28;20478;-72
2022/01/18 03:48:50;;;;;;;18.58;7.65;;;;;;;4.02;100.00;102129.41;5013036;28;20053;-72
2022/01/18 03:51:15;;;;;;;21.70;6.70;;;;;;;3.96;100.00;102126.59;5013970;28;20024;-72
2022/01/18 03:53:40;;;;;;;14.00;6.32;;;;;;;4.09;100.00;102131.38;5015136;28;20104;-73
2022/01/18 03:56:06;;;;;;;19.02;7.18;;;;;;;4.03;100.00;102141.75;5013800;28;20022;-73
2022/01/18 03:58:33;;;;;;;18.65;6.82;;;;;;;4.08;100.00;102142.78;5015048;28;20109;-73
2022/01/18 04:00:59;;;;;;;14.23;5.93;;;;;;;4.00;100.00;102136.38;5013728;28;20048;-73
2022/01/18 04:03:25;;;;;;;17.65;5.60;;;;;;;4.04;100.00;102138.28;5014901;28;20018;-73
2022/01/18 04:05:52;;;;;;;20.02;6.65;;;;;;;3.94;100.00;102137.13;5015017;28;20022;-73
2022/01/18 04:08:19;;;;;;;16.67;6.30;;;;;;;3.91;100.00;102140.59;5014414;28;20021;-73
2022/01/18 04:10:44;;;;;;;15.77;6.30;;;;;;;3.95;100.00;102145.94;5014790;28;20022;-73
2022/01/18 04:13:10;;;;;;;24.02;6.20;;;;;;;3.92;100.00;102146.75;5013472;28;20087;-75
2022/01/18 04:15:35;;;;;;;12.35;5.95;;;;;;;4.06;100.00;102144.50;5013469;28;20033;-74
2022/01/18 04:18:25;;;;;;;19.00;6.30;;;;;;;3.98;100.00;102151.31;5013481;28;20410;-73
2022/01/18 04:28:57;;;;;;;21.58;6.38;;;;;;;3.99;100.00;102155.75;5015011;28;20037;-73
2022/01/18 04:31:24;;;;;;;16.45;7.13;;;;;;;4.02;100.00;102151.44;5014306;28;20526;-73
2022/01/18 04:33:49;;;;;;;20.15;6.65;;;;;;;4.00;100.00;102152.25;5014363;28;20105;-73
2022/01/18 04:36:15;;;;;;;15.15;7.10;;;;;;;4.02;100.00;102153.22;5014413;28;20103;-74
2022/01/18 04:38:41;;;;;;;18.88;7.10;;;;;;;3.98;100.00;102156.59;5013255;28;20109;-74
2022/01/18 04:41:10;;;;;;;17.38;7.18;;;;;;;4.12;100.00;102154.34;5014555;28;20109;-73
2022/01/18 04:48:49;;;;;;;19.75;7.93;;;;;;;4.01;100.00;102156.69;5014242;28;20117;-74
2022/01/18 04:51:15;;;;;;;23.80;8.52;;;;;;;4.07;100.00;102151.56;5014186;28;20043;-73
2022/01/18 04:53:47;;;;;;;20.67;9.75;;;;;;;4.06;100.00;102155.06;5012869;28;20025;-73
2022/01/18 04:56:16;;;;;;;24.33;9.30;;;;;;;4.17;100.00;102152.72;5012986;28;20448;-73
2022/01/18 04:58:42;;;;;;;27.38;10.10;;;;;;;4.27;100.00;102151.22;5012721;28;20030;-73
2022/01/18 05:01:12;;;;;;;25.77;9.80;;;;;;;4.27;100.00;102156.50;5012601;28;20025;-72
2022/01/18 05:03:38;;;;;;;23.88;9.65;;;;;;;4.14;100.00;102163.22;5012638;28;20033;-73
2022/01/18 05:06:09;;;;;;;24.60;9.30;;;;;;;4.10;100.00;102162.22;5012575;28;20501;-73
2022/01/18 05:08:39;;;;;;;29.63;10.88;;;;;;;4.17;100.00;102154.47;5012607;28;20022;-73
2022/01/18 05:11:06;;;;;;;26.20;10.80;;;;;;;4.17;100.00;102151.81;5012400;28;20026;-73
2022/01/18 05:21:26;;;;;;;26.40;11.60;;;;;;;4.12;100.00;102168.44;5013557;28;20030;-75
2022/01/18 05:23:51;;;;;;;32.78;12.18;;;;;;;4.12;100.00;102171.09;5014266;28;20471;-74
2022/01/18 05:26:17;;;;;;;32.28;12.55;;;;;;;4.13;100.00;102172.00;5013743;28;20065;-74
2022/01/18 05:28:42;;;;;;;30.52;12.85;;;;;;;4.13;100.00;102183.47;5012266;28;20475;-76
2022/01/18 05:31:08;;;;;;;29.30;12.10;;;;;;;4.11;100.00;102174.59;5013426;28;20025;-73
2022/01/18 05:33:33;;;;;;;33.67;12.85;;;;;;;4.17;100.00;102178.28;5013124;28;20017;-74
2022/01/18 05:35:58;;;;;;;37.08;12.90;;;;;;;4.15;100.00;102177.34;5013423;28;20026;-74
2022/01/18 05:38:23;;;;;;;42.15;13.13;;;;;;;4.18;100.00;102169.47;5013374;28;20080;-74
2022/01/18 05:40:49;;;;;;;35.63;12.52;;;;;;;4.15;100.00;102179.97;5056570;22;20392;-82
2022/01/18 05:43:15;;;;;;;42.55;14.57;;;;;;;4.15;100.00;102177.34;4990144;28;20026;-83
2022/01/18 05:45:40;;;;;;;42.67;13.52;;;;;;;4.13;100.00;102177.28;5005973;28;20022;-83
2022/01/18 05:48:06;;;;;;;47.28;14.70;;;;;;;4.14;100.00;102184.38;4991586;28;20022;-82
2022/01/18 05:50:31;;;;;;;41.63;15.00;;;;;;;4.14;100.00;102194.94;4990771;28;20451;-83
2022/01/18 05:52:57;;;;;;;55.78;15.98;;;;;;;4.15;100.00;102201.13;5004601;28;20070;-83
2022/01/18 05:55:22;;;;;;;41.33;14.85;;;;;;;4.17;100.00;102194.13;4998773;28;20117;-82
2022/01/18 05:57:47;;;;;;;50.88;15.05;;;;;;;4.24;100.00;102201.38;5007756;28;20030;-82
2022/01/18 06:00:20;;;;;;;44.58;15.45;;;;;;;4.24;100.00;102198.72;5002765;28;20022;-82
2022/01/18 06:08:04;;;;;;;40.50;14.93;;;;;;;4.25;100.00;102198.75;5006016;28;20033;-81
2022/01/18 06:10:29;;;;;;;42.75;14.70;;;;;;;4.38;100.00;102214.09;5021538;28;20053;-81
2022/01/18 06:12:54;;;;;;;42.78;15.07;;;;;;;4.29;100.00;102209.44;5008177;28;20030;-82
2022/01/18 06:15:20;;;;;;;47.03;14.65;;;;;;;4.24;100.00;102207.56;5006082;28;20546;-82
2022/01/18 06:17:46;;;;;;;40.50;13.95;;;;;;;4.26;100.00;102215.53;5007404;28;20026;-82
2022/01/18 06:20:11;;;;;;;44.90;13.57;;;;;;;4.20;100.00;102213.59;5002867;28;20076;-81
2022/01/18 06:22:37;;;;;;;56.33;14.52;;;;;;;4.20;100.00;102221.53;5002602;28;20023;-83
2022/01/18 06:25:03;;;;;;;45.85;13.63;;;;;;;4.20;100.00;102220.66;5000088;28;20032;-83
2022/01/18 06:27:28;;;;;;;42.40;13.80;;;;;;;4.19;100.00;102218.88;5002899;28;20030;-83
2022/01/18 06:29:55;;;;;;;52.45;14.38;;;;;;;4.19;100.00;102218.88;5015904;28;20033;-83
2022/01/18 06:32:21;;;;;;;50.75;14.82;;;;;;;4.15;100.00;102217.00;4999077;28;20026;-83
2022/01/18 06:34:46;;;;;;;52.00;14.93;;;;;;;4.15;100.00;102224.94;5000308;28;20443;-83
2022/01/18 06:37:11;;;;;;;56.47;14.63;;;;;;;4.16;100.00;102218.78;5002057;28;20030;-82
2022/01/18 06:39:37;;;;;;;49.88;15.00;;;;;;;4.20;100.00;102225.97;5003978;28;20026;-82
2022/01/18 06:42:03;;;;;;;65.15;16.15;;;;;;;4.18;100.00;102227.63;5006197;28;20034;-82
2022/01/18 06:44:28;;;;;;;62.92;16.60;;;;;;;4.19;100.00;102224.16;5005310;28;20128;-84
2022/01/18 06:46:54;;;;;;;58.42;15.93;;;;;;;4.21;100.00;102226.00;5004952;28;20026;-83
2022/01/18 06:49:19;;;;;;;57.78;15.85;;;;;;;4.19;100.00;102226.81;5007800;28;20475;-84
2022/01/18 06:51:45;;;;;;;67.55;16.67;;;;;;;4.15;100.00;102227.56;5007873;28;20030;-83
2022/01/18 06:54:15;;;;;;;63.30;15.32;;;;;;;4.19;100.00;102232.09;5006600;28;20022;-82
2022/01/18 06:56:44;;;;;;;63.05;16.35;;;;;;;4.21;100.00;102227.72;5007190;28;20065;-84
2022/01/18 06:59:09;;;;;;;66.15;17.45;;;;;;;4.17;100.00;102232.06;5008356;28;20463;-83
2022/01/18 07:01:35;;;;;;;59.78;16.45;;;;;;;4.19;100.00;102225.06;5022433;28;20094;-83
2022/01/18 07:04:00;;;;;;;69.15;17.80;;;;;;;4.16;100.00;102232.00;5021840;28;20022;-83
2022/01/18 07:06:25;;;;;;;61.30;16.63;;;;;;;4.15;100.00;102227.56;4997831;28;20026;-82
2022/01/18 07:08:50;;;;;;;75.53;17.30;;;;;;;4.14;100.00;102231.97;4997634;28;20034;-82
2022/01/18 07:11:16;;;;;;;56.30;17.52;;;;;;;4.12;100.00;102237.19;4999738;28;20033;-81
2022/01/18 07:13:42;;;;;;;60.03;16.90;;;;;;;4.17;100.00;102237.34;5001217;28;20026;-83
2022/01/18 07:16:07;;;;;;;78.28;18.33;;;;;;;4.14;100.00;102242.53;5001183;28;20022;-83
2022/01/18 07:18:33;;;;;;;58.22;15.93;;;;;;;4.16;100.00;102234.63;5002637;28;20027;-83
2022/01/18 07:20:58;;;;;;;56.25;16.30;;;;;;;4.15;100.00;102243.44;5002682;28;20490;-82
2022/01/18 07:23:23;;;;;;;73.63;16.90;;;;;;;4.14;100.00;102237.25;5001275;28;20026;-83
2022/01/18 07:25:49;;;;;;;62.42;19.13;;;;;;;4.16;100.00;102245.22;5003723;28;20019;-83
2022/01/18 07:28:17;;;;;;;60.40;15.63;;;;;;;4.16;100.00;102239.94;5003147;28;20030;-83
2022/01/18 07:30:43;;;;;;;59.00;17.88;;;;;;;4.15;100.00;102246.09;5019042;28;20030;-83
2022/01/18 07:33:09;;;;;;;55.92;17.48;;;;;;;4.13;100.00;102251.31;5004752;28;20058;-82
2022/01/18 07:35:35;;;;;;;61.03;16.92;;;;;;;4.15;100.00;102239.03;5004571;28;20030;-83
2022/01/18 07:38:02;;;;;;;54.78;15.57;;;;;;;4.15;100.00;102240.78;5006057;28;20018;-82
2022/01/18 07:40:29;;;;;;;62.67;15.30;;;;;;;4.13;100.00;102246.94;5002313;28;20022;-83
2022/01/18 07:42:54;;;;;;;57.30;15.05;;;;;;;4.13;100.00;102246.94;4995826;28;20065;-82
2022/01/18 07:45:21;;;;;;;64.53;15.55;;;;;;;4.14;100.00;102242.53;4997153;28;20076;-81
2022/01/18 07:47:47;;;;;;;58.45;14.68;;;;;;;4.16;100.00;102250.50;4998443;28;20053;-82
2022/01/18 07:50:12;;;;;;;56.05;13.93;;;;;;;4.16;100.00;102250.50;5000511;28;20030;-82
2022/01/18 07:52:38;;;;;;;51.33;13.80;;;;;;;4.19;100.00;102256.78;4999722;28;20081;-81
2022/01/18 07:55:05;;;;;;;48.90;12.45;;;;;;;4.19;100.00;102256.78;5000558;28;20019;-83
2022/01/18 07:57:30;;;;;;;48.63;11.75;;;;;;;4.18;100.00;102254.09;5017219;28;20077;-83
2022/01/18 07:59:56;;;;;;;53.45;12.65;;;;;;;4.21;100.00;102256.81;5001298;28;20026;-83
2022/01/18 08:02:21;;;;;;;48.15;12.13;;;;;;;4.21;100.00;102259.47;5001998;28;20442;-83
2022/01/18 08:04:46;;;;;;;37.85;11.57;;;;;;;4.20;100.00;102255.91;5003346;28;20033;-83
2022/01/18 08:07:11;;;;;;;43.05;11.43;;;;;;;4.20;100.00;102255.03;5003753;28;20030;-82
2022/01/18 08:09:37;;;;;;;33.35;10.52;;;;;;;4.27;100.00;102254.38;5002043;28;20039;-82
2022/01/18 08:12:05;;;;;;;43.17;11.82;;;;;;;4.28;100.00;102263.19;5004460;28;20018;-83
2022/01/18 08:14:31;;;;;;;38.90;11.82;;;;;;;4.30;100.00;102264.13;5002354;28;20072;-83
2022/01/18 08:17:00;;;;;;;45.70;11.75;;;;;;;4.32;100.00;102271.25;4997353;28;20088;-82
2022/01/18 08:19:30;;;;;;;39.75;11.05;;;;;;;4.38;100.00;102261.69;4997552;28;20045;-82
2022/01/18 08:21:57;;;;;;;39.63;10.35;;;;;;;4.35;100.00;102268.72;4998515;28;20027;-81
2022/01/18 08:24:22;;;;;;;44.47;11.07;;;;;;;4.36;100.00;102269.56;5000105;28;20022;-82
2022/01/18 08:26:47;;;;;;;45.67;11.63;;;;;;;4.40;100.00;102262.63;4998858;28;20023;-83
2022/01/18 08:29:13;;;;;;;44.90;11.77;;;;;;;4.34;100.00;102274.84;4998947;28;20050;-82
2022/01/18 08:31:40;;;;;;;38.67;11.32;;;;;;;4.34;100.00;102277.47;4999608;28;20026;-83
2022/01/18 08:34:05;;;;;;;42.58;10.77;;;;;;;4.33;100.00;102278.31;5000858;28;20038;-83
2022/01/18 08:36:30;;;;;;;50.97;11.07;;;;;;;4.30;100.00;102280.91;5001182;28;20018;-83
2022/01/18 08:38:55;;;;;;;44.58;11.25;;;;;;;4.34;100.00;102284.50;5016395;28;20066;-83
2022/01/18 08:41:21;;;;;;;45.53;12.13;;;;;;;4.33;100.00;102285.38;5000787;28;20081;-83
2022/01/18 08:43:47;;;;;;;47.38;11.25;;;;;;;4.32;100.00;102297.72;5005442;28;20110;-83
2022/01/18 08:46:12;;;;;;;47.70;11.23;;;;;;;4.36;100.00;102286.34;5009772;28;20119;-82
2022/01/18 08:48:38;;;;;;;36.50;10.50;;;;;;;4.41;100.00;102289.13;5002451;28;20026;-83
2022/01/18 08:51:05;;;;;;;43.42;11.75;;;;;;;4.36;100.00;102294.28;4993573;28;20026;-83
2022/01/18 08:53:30;;;;;;;38.83;11.13;;;;;;;4.37;100.00;102292.53;4995578;28;20034;-83
2022/01/18 08:55:56;;;;;;;44.75;10.75;;;;;;;4.40;100.00;102292.63;4993693;28;20379;-83
2022/01/18 08:58:26;;;;;;;40.03;10.38;;;;;;;4.36;100.00;102293.38;4994082;28;20121;-83
2022/01/18 09:00:51;;;;;;;37.15;10.43;;;;;;;4.36;100.00;102299.56;4995846;28;20026;-82
2022/01/18 09:03:16;;;;;;;41.42;10.35;;;;;;;4.42;100.00;102297.97;4995578;28;20022;-83
2022/01/18 09:05:44;;;;;;;46.10;11.38;;;;;;;4.43;100.00;102289.19;4997044;28;20026;-83
2022/01/18 09:08:11;;;;;;;36.75;10.65;;;;;;;4.42;100.00;102292.66;4996334;28;20113;-83
2022/01/18 09:10:37;;;;;;;40.15;10.75;;;;;;;4.43;100.00;102291.81;5012820;28;20092;-82
2022/01/18 09:13:03;;;;;;;39.97;10.30;;;;;;;4.47;100.00;102304.28;4996840;28;20027;-83
2022/01/18 09:15:28;;;;;;;36.15;10.15;;;;;;;4.50;100.00;102301.72;4997589;28;20093;-83
2022/01/18 09:17:53;;;;;;;35.38;10.15;;;;;;;4.51;100.00;102303.50;4996654;28;20077;-82
2022/01/18 09:20:19;;;;;;;39.20;9.32;;;;;;;4.55;100.00;102301.84;4996645;28;20502;-82
2022/01/18 09:22:48;;;;;;;29.77;8.50;;;;;;;4.51;100.00;102308.78;4998382;28;20034;-82
2022/01/18 09:25:19;;;;;;;40.17;9.27;;;;;;;4.51;100.00;102311.44;4996879;28;20073;-83
2022/01/18 09:27:45;;;;;;;34.17;9.50;;;;;;;4.51;100.00;102314.06;4997987;28;20038;-83
2022/01/18 09:30:12;;;;;;;34.53;9.05;;;;;;;4.52;100.00;102313.25;4996490;28;20018;-83
2022/01/18 09:32:38;;;;;;;27.95;8.25;;;;;;;4.51;100.00;102316.72;4996477;28;20026;-81
2022/01/18 09:35:06;;;;;;;27.77;7.95;;;;;;;4.53;100.00;102316.78;4997775;28;20096;-83
2022/01/18 09:37:31;;;;;;;30.98;8.23;;;;;;;4.56;100.00;102309.81;4997418;28;20030;-82
2022/01/18 09:39:57;;;;;;;30.10;8.45;;;;;;;4.55;100.00;102315.97;4998988;28;20022;-83
2022/01/18 09:42:31;;;;;;;29.65;8.00;;;;;;;4.65;100.00;102318.88;4998496;28;20086;-83
2022/01/18 09:44:57;;;;;;;27.25;8.23;;;;;;;4.62;100.00;102329.34;4998597;28;20030;-82
2022/01/18 09:47:23;;;;;;;28.00;6.97;;;;;;;4.56;100.00;102320.41;4998853;28;20027;-83
2022/01/18 09:49:48;;;;;;;26.50;8.48;;;;;;;4.57;100.00;102338.09;4998766;28;20114;-82
2022/01/18 09:52:13;;;;;;;27.30;8.10;;;;;;;4.64;100.00;102332.97;4998418;28;20030;-82
2022/01/18 09:54:39;;;;;;;28.10;8.73;;;;;;;4.68;100.00;102326.91;4998247;28;20026;-82
2022/01/18 09:57:04;;;;;;;25.17;7.95;;;;;;;4.67;100.00;102333.03;4997666;28;20403;-82
2022/01/18 09:59:30;;;;;;;22.45;6.47;;;;;;;4.71;100.00;102329.63;4997198;28;20025;-82
2022/01/18 10:01:55;;;;;;;21.42;5.93;;;;;;;4.70;100.00;102338.41;5000476;28;20105;-82
2022/01/18 10:04:25;;;;;;;19.30;5.70;;;;;;;4.73;100.00;102337.59;4998652;28;20029;-82
2022/01/18 10:06:54;;;;;;;21.20;5.97;;;;;;;4.75;100.00;102342.09;5000617;28;20054;-83
2022/01/18 10:09:20;;;;;;;17.48;5.40;;;;;;;4.72;100.00;102336.72;5003402;28;20448;-82
2022/01/18 10:12:12;;;;;;;19.13;5.82;;;;;;;4.79;100.00;102332.50;5001673;28;20090;-83
2022/01/18 10:14:56;;;;;;;19.27;5.38;;;;;;;4.89;100.00;102349.53;5001956;28;20061;-82
2022/01/18 10:17:47;;;;;;;19.48;5.18;;;;;;;4.94;100.00;102342.59;5002011;28;20049;-82
2022/01/18 10:20:19;;;;;;;26.30;5.90;;;;;;;4.95;100.00;102328.47;4999787;28;20105;-82
2022/01/18 10:22:49;;;;;;;20.10;5.68;;;;;;;4.97;100.00;102336.50;5003190;28;20030;-82
2022/01/18 10:25:28;;;;;;;19.77;6.13;;;;;;;4.93;100.00;102332.84;5001896;28;20058;-83
2022/01/18 10:27:55;;;;;;;21.73;6.20;;;;;;;4.98;100.00;102339.16;5003341;28;20031;-82
2022/01/18 10:30:33;;;;;;;22.75;5.57;;;;;;;4.94;100.00;102337.31;5002226;28;20502;-83
2022/01/18 10:33:07;;;;;;;19.95;5.55;;;;;;;5.02;100.00;102330.47;5002553;28;20046;-83
2022/01/18 10:35:33;;;;;;;17.67;5.25;;;;;;;5.07;100.00;102333.22;5003813;28;20029;-82
2022/01/18 10:37:58;;;;;;;25.33;6.82;;;;;;;5.16;100.00;102336.94;5002616;28;20026;-82
2022/01/18 10:40:26;;;;;;;23.70;6.03;;;;;;;5.04;100.00;102335.78;4998268;28;20053;-82
2022/01/18 10:42:53;;;;;;;17.67;6.15;;;;;;;5.18;100.00;102330.84;4999714;28;20030;-83
2022/01/18 10:45:24;;;;;;;15.27;5.35;;;;;;;5.16;100.00;102335.19;5002654;28;20029;-83
2022/01/18 10:47:51;;;;;;;22.52;5.95;;;;;;;5.10;100.00;102337.72;5003680;28;20030;-83
2022/01/18 10:50:18;;;;;;;20.88;5.60;;;;;;;5.13;100.00;102327.16;5006800;28;20034;-83
2022/01/18 10:52:44;;;;;;;27.25;6.60;;;;;;;5.22;100.00;102327.44;5007221;28;20018;-83
2022/01/18 10:55:19;;;;;;;22.60;5.30;;;;;;;5.25;100.00;102324.88;5007036;28;20145;-81
2022/01/18 10:57:45;;;;;;;15.32;5.13;;;;;;;5.16;100.00;102327.25;5005686;28;20041;-83
2022/01/18 11:00:25;;;;;;;18.88;5.32;;;;;;;5.23;100.00;102328.34;5006844;28;20081;-83
2022/01/18 11:02:54;;;;;;;12.98;4.80;;;;;;;5.20;100.00;102322.94;5004446;28;20022;-83
2022/01/18 11:05:26;;;;;;;27.75;11.82;;;;;;;5.29;100.00;102316.97;5003616;28;20542;-83
2022/01/18 11:07:53;;;;;;;24.48;8.77;;;;;;;5.34;100.00;102316.22;5003528;28;20045;-83
2022/01/18 11:10:21;;;;;;;33.47;12.70;;;;;;;5.41;100.00;102317.25;5002337;28;20054;-83
2022/01/18 11:12:56;;;;;;;16.05;7.22;;;;;;;5.38;100.00;102311.91;5002453;28;20052;-81
2022/01/18 11:15:24;;;;;;;16.08;5.15;;;;;;;5.30;100.00;102313.47;4998913;28;20479;-83
2022/01/18 11:17:57;;;;;;;18.65;5.47;;;;;;;5.39;100.00;102307.50;5000627;28;20030;-83
2022/01/18 11:20:23;;;;;;;17.55;5.60;;;;;;;5.35;100.00;102312.75;5002254;28;20025;-83
2022/01/18 11:22:51;;;;;;;18.80;6.57;;;;;;;5.38;100.00;102317.22;5000828;28;20034;-82
2022/01/18 11:25:17;;;;;;;16.35;4.47;;;;;;;5.40;100.00;102311.94;5001244;28;20049;-83
2022/01/18 11:27:48;;;;;;;21.00;8.88;;;;;;;5.52;100.00;102309.59;5001294;28;20026;-82
2022/01/18 11:30:14;;;;;;;22.38;7.45;;;;;;;5.57;100.00;102313.25;5000997;28;20506;-83
2022/01/18 11:32:40;;;;;;;14.18;4.82;;;;;;;5.64;100.00;102308.09;5000465;28;20431;-82
2022/01/18 11:35:12;;;;;;;15.48;4.55;;;;;;;5.73;100.00;102303.00;5002943;28;20026;-83
2022/01/18 11:37:46;;;;;;;17.05;4.68;;;;;;;5.80;100.00;102304.91;5002867;28;20471;-82
2022/01/18 11:40:15;;;;;;;15.68;3.72;;;;;;;5.97;100.00;102295.56;5000940;28;20014;-83
2022/01/18 11:42:50;;;;;;;15.60;3.95;;;;;;;5.87;100.00;102297.13;5024491;23;20045;-75
2022/01/18 11:45:24;;;;;;;14.93;4.80;;;;;;;5.84;100.00;102289.09;4997755;28;20026;-75
2022/01/18 11:48:11;;;;;;;15.63;5.32;;;;;;;5.90;100.00;102292.75;4997721;28;20030;-75
2022/01/18 11:50:43;;;;;;;15.38;4.60;;;;;;;5.97;100.00;102290.25;5015092;28;20037;-75
2022/01/18 11:53:21;;;;;;;21.50;4.30;;;;;;;5.87;100.00;102281.22;5015197;28;20019;-75
2022/01/18 11:55:47;;;;;;;12.32;3.75;;;;;;;5.90;100.00;102289.25;5015164;28;20398;-75
2022/01/18 11:58:13;;;;;;;10.07;4.00;;;;;;;5.83;100.00;102280.25;5013866;28;20030;-75
2022/01/18 12:00:52;;;;;;;16.00;3.92;;;;;;;5.91;100.00;102278.66;5014999;28;20022;-75
2022/01/18 12:03:41;;;;;;;15.25;4.22;;;;;;;5.92;100.00;102277.81;5015263;28;20105;-76
2022/01/18 12:06:06;;;;;;;12.95;4.50;;;;;;;5.93;100.00;102268.97;5015195;28;20395;-75
2022/01/18 12:08:43;;;;;;;11.73;4.05;;;;;;;5.99;100.00;102265.56;5014871;28;20483;-75
2022/01/18 12:11:27;;;;;;;12.48;3.28;;;;;;;5.96;100.00;102272.53;5013457;28;20022;-75
2022/01/18 12:14:00;;;;;;;14.55;3.63;;;;;;;6.04;100.00;102266.56;5014710;28;20029;-75
2022/01/18 12:16:29;;;;;;;14.18;4.32;;;;;;;6.11;100.00;102267.59;5013395;28;20519;-75
2022/01/18 12:18:58;;;;;;;13.25;3.63;;;;;;;6.04;100.00;102277.16;5014943;28;20036;-75
2022/01/18 12:21:27;;;;;;;12.20;4.35;;;;;;;6.07;100.00;102271.06;5013440;28;20421;-75